Time;durP1;ratioP1;P1;durP2;ratioP2;P2;SDS_P1;SDS_P2;PMS_P1;PMS_P2;Temp;Humidity;BMP_temperature;BMP_pressure;BME280_temperature;BME280_humidity;BME280_pressure;Samples;Min_cycle;Max_cycle;Signal;HPM_P1;HPM_P2
2022/07/04 00:01:44;;;;;;;1.80;1.70;;;20.50;99.90;;;;;;4985524;28;20639;-80
2022/07/04 00:04:11;;;;;;;3.73;1.63;;;20.50;99.90;;;;;;4984087;28;20704;-80
2022/07/04 00:06:38;;;;;;;2.10;1.50;;;20.50;99.90;;;;;;4986155;28;20628;-79
2022/07/04 00:09:05;;;;;;;2.90;1.70;;;20.40;99.90;;;;;;4985214;28;20625;-80
2022/07/04 00:11:33;;;;;;;2.37;1.90;;;20.40;99.90;;;;;;4986365;28;21011;-80
2022/07/04 00:14:00;;;;;;;2.50;1.40;;;20.40;99.90;;;;;;4982773;28;20639;-79
2022/07/04 00:16:27;;;;;;;1.63;1.30;;;20.50;99.90;;;;;;4980615;28;20629;-79
2022/07/04 00:18:54;;;;;;;1.80;1.70;;;20.60;99.90;;;;;;4982769;28;21258;-79
2022/07/04 00:21:20;;;;;;;2.93;1.80;;;20.70;99.90;;;;;;4985129;28;20695;-79
2022/07/04 00:23:48;;;;;;;1.70;1.60;;;20.70;99.90;;;;;;4984716;28;20636;-79
2022/07/04 00:26:15;;;;;;;1.40;1.30;;;20.80;99.90;;;;;;4984306;28;20664;-80
2022/07/04 00:28:43;;;;;;;1.73;1.30;;;20.80;99.90;;;;;;4981084;28;20633;-79
2022/07/04 00:31:10;;;;;;;1.73;1.50;;;20.80;99.90;;;;;;4985352;28;20656;-79
2022/07/04 00:33:37;;;;;;;4.57;1.37;;;20.80;99.90;;;;;;4984699;28;20631;-80
2022/07/04 00:36:04;;;;;;;2.07;1.53;;;20.80;99.90;;;;;;4985060;28;20632;-79
2022/07/04 00:38:31;;;;;;;2.10;1.20;;;20.90;99.90;;;;;;4982070;28;21184;-79
2022/07/04 00:40:58;;;;;;;1.70;1.33;;;20.90;99.90;;;;;;4987014;28;21249;-79
2022/07/04 00:43:26;;;;;;;2.90;1.50;;;20.80;99.90;;;;;;4981297;28;21167;-80
2022/07/04 00:45:55;;;;;;;2.20;1.37;;;20.90;99.90;;;;;;4974839;28;20716;-80
2022/07/04 00:48:22;;;;;;;2.00;1.53;;;20.90;99.90;;;;;;4985153;28;20612;-80
2022/07/04 00:50:49;;;;;;;2.80;1.37;;;20.90;99.90;;;;;;4987357;28;21239;-80
2022/07/04 00:53:18;;;;;;;1.40;1.30;;;20.90;99.90;;;;;;4987637;28;21204;-80
2022/07/04 00:55:45;;;;;;;2.10;1.20;;;20.90;99.90;;;;;;4985163;28;20617;-80
2022/07/04 00:58:14;;;;;;;1.77;1.50;;;20.80;99.90;;;;;;4987191;28;20836;-80
2022/07/04 01:00:41;;;;;;;2.30;1.63;;;20.90;99.90;;;;;;4985526;28;20676;-81
2022/07/04 01:03:09;;;;;;;3.00;1.50;;;20.90;99.90;;;;;;4986727;28;20687;-80
2022/07/04 01:05:36;;;;;;;3.57;1.70;;;20.80;99.90;;;;;;4986691;28;20640;-80
2022/07/04 01:08:03;;;;;;;1.40;1.30;;;20.80;99.90;;;;;;4986521;28;21408;-80
2022/07/04 01:10:30;;;;;;;1.97;1.20;;;20.80;99.90;;;;;;4987984;28;20659;-80
2022/07/04 01:12:57;;;;;;;2.10;1.93;;;20.80;99.90;;;;;;4986142;28;20632;-80
2022/07/04 01:15:24;;;;;;;2.43;1.50;;;20.80;99.90;;;;;;4986819;28;20632;-80
2022/07/04 01:17:54;;;;;;;2.20;1.67;;;20.80;99.90;;;;;;4984069;28;20629;-80
2022/07/04 01:20:23;;;;;;;2.27;1.23;;;20.70;99.90;;;;;;4987065;28;20771;-80
2022/07/04 01:22:50;;;;;;;1.73;1.10;;;20.70;99.90;;;;;;4985847;28;20625;-80
2022/07/04 01:25:17;;;;;;;2.20;1.30;;;20.70;99.90;;;;;;4986179;28;20632;-80
2022/07/04 01:27:44;;;;;;;1.77;1.63;;;20.70;99.90;;;;;;4981464;28;20639;-80
2022/07/04 01:30:11;;;;;;;2.27;1.47;;;20.70;99.90;;;;;;4986971;28;20648;-80
2022/07/04 01:32:38;;;;;;;1.80;1.50;;;20.70;99.90;;;;;;4986290;28;20628;-80
2022/07/04 01:35:06;;;;;;;3.57;1.33;;;20.70;99.90;;;;;;4985547;28;20636;-80
2022/07/04 01:37:34;;;;;;;4.17;2.33;;;20.60;99.90;;;;;;4986636;28;20623;-79
2022/07/04 01:40:01;;;;;;;2.67;1.53;;;20.70;99.90;;;;;;4986865;28;20656;-80
2022/07/04 01:42:28;;;;;;;3.70;1.50;;;20.60;99.90;;;;;;4986681;28;20628;-82
2022/07/04 01:44:55;;;;;;;3.23;1.50;;;20.60;99.90;;;;;;4986773;28;20731;-80
2022/07/04 01:47:22;;;;;;;4.37;1.53;;;20.60;99.90;;;;;;4988809;28;21252;-79
2022/07/04 01:49:48;;;;;;;3.90;1.70;;;20.60;99.90;;;;;;4987069;28;20664;-82
2022/07/04 01:52:15;;;;;;;4.77;1.53;;;20.60;99.90;;;;;;4984841;28;20647;-81
2022/07/04 01:54:44;;;;;;;2.80;1.60;;;20.50;99.90;;;;;;4983624;28;20632;-80
2022/07/04 01:57:12;;;;;;;1.77;1.63;;;20.50;99.90;;;;;;4986647;28;20651;-80
2022/07/04 02:02:23;;;;;;;1.57;1.47;;;20.50;99.90;;;;;;4984785;28;20616;-81
2022/07/04 02:04:50;;;;;;;2.20;1.50;;;20.50;99.90;;;;;;4982382;28;20627;-81
2022/07/04 02:07:17;;;;;;;2.77;1.80;;;20.40;99.90;;;;;;4986416;28;20632;-80
2022/07/04 02:09:45;;;;;;;2.37;2.17;;;20.40;99.90;;;;;;4982084;28;20699;-80
2022/07/04 02:14:57;;;;;;;1.40;1.30;;;20.40;99.90;;;;;;4982948;28;20613;-81
2022/07/04 02:17:24;;;;;;;3.30;1.80;;;20.40;99.90;;;;;;4986413;28;20625;-79
2022/07/04 02:19:50;;;;;;;2.87;1.50;;;20.40;99.90;;;;;;4986304;28;20653;-81
2022/07/04 02:22:17;;;;;;;3.37;1.80;;;20.40;99.90;;;;;;4986061;28;20672;-81
2022/07/04 02:24:45;;;;;;;4.40;1.50;;;20.40;99.90;;;;;;4986214;28;21516;-79
2022/07/04 02:27:12;;;;;;;2.30;1.47;;;20.30;99.90;;;;;;4983792;28;20664;-79
2022/07/04 02:29:40;;;;;;;2.30;1.80;;;20.30;99.90;;;;;;4983816;28;21246;-81
2022/07/04 02:32:08;;;;;;;5.00;2.07;;;20.30;99.90;;;;;;4985984;28;21218;-80
2022/07/04 02:34:34;;;;;;;2.90;1.57;;;20.30;99.90;;;;;;4971636;28;20641;-80
2022/07/04 02:37:01;;;;;;;4.97;1.53;;;20.30;99.90;;;;;;4984754;28;21009;-80
2022/07/04 02:39:28;;;;;;;2.50;1.50;;;20.20;99.90;;;;;;4984767;28;20636;-80
2022/07/04 02:41:56;;;;;;;3.37;1.60;;;20.20;99.90;;;;;;4980695;28;20669;-80
2022/07/04 02:44:23;;;;;;;1.80;1.70;;;20.20;99.90;;;;;;4984800;28;20624;-80
2022/07/04 02:46:50;;;;;;;2.57;2.37;;;20.20;99.90;;;;;;4974550;28;20644;-80
2022/07/04 02:49:16;;;;;;;2.90;1.93;;;20.10;99.90;;;;;;4975505;28;20680;-80
2022/07/04 02:51:43;;;;;;;2.83;1.60;;;20.10;99.90;;;;;;4978417;28;21179;-79
2022/07/04 02:54:10;;;;;;;5.70;2.13;;;20.00;99.90;;;;;;4980394;28;20637;-80
2022/07/04 02:56:37;;;;;;;1.60;1.43;;;20.00;99.90;;;;;;4983268;28;20643;-80
2022/07/04 02:59:05;;;;;;;1.70;1.60;;;20.00;99.90;;;;;;4973865;28;21242;-80
2022/07/04 03:01:33;;;;;;;2.33;1.70;;;19.90;99.90;;;;;;4971913;28;20676;-80
2022/07/04 03:03:59;;;;;;;3.20;1.70;;;19.90;99.90;;;;;;4983621;28;20640;-80
2022/07/04 03:06:26;;;;;;;2.90;1.90;;;19.90;99.90;;;;;;4981696;28;20743;-80
2022/07/04 03:08:54;;;;;;;2.20;1.77;;;19.80;99.90;;;;;;4982385;28;20634;-80
2022/07/04 03:11:21;;;;;;;2.77;1.77;;;19.80;99.90;;;;;;4983047;28;20640;-80
2022/07/04 03:13:48;;;;;;;2.73;1.80;;;19.80;99.90;;;;;;4983598;28;20696;-80
2022/07/04 03:16:17;;;;;;;3.43;1.53;;;19.80;99.90;;;;;;4983637;28;20988;-80
2022/07/04 03:18:44;;;;;;;3.40;2.03;;;19.70;99.90;;;;;;4983272;28;20624;-80
2022/07/04 03:21:11;;;;;;;3.67;1.40;;;19.70;99.90;;;;;;4983804;28;20684;-80
2022/07/04 03:23:37;;;;;;;2.40;1.40;;;19.70;99.90;;;;;;4982757;28;20621;-80
2022/07/04 03:26:05;;;;;;;4.53;1.70;;;19.70;99.90;;;;;;4982432;28;20612;-80
2022/07/04 03:28:31;;;;;;;2.30;1.70;;;19.60;99.90;;;;;;4984482;28;20648;-80
2022/07/04 03:30:59;;;;;;;1.93;1.57;;;19.60;99.90;;;;;;4988399;28;20688;-80
2022/07/04 03:33:27;;;;;;;2.43;1.50;;;19.50;99.90;;;;;;4988416;28;20762;-80
2022/07/04 03:35:54;;;;;;;4.33;1.90;;;19.40;99.90;;;;;;4987341;28;20644;-80
2022/07/04 03:38:21;;;;;;;3.10;1.70;;;19.40;99.90;;;;;;4987156;28;20609;-80
2022/07/04 03:40:48;;;;;;;2.40;1.87;;;19.40;99.90;;;;;;4986318;28;20676;-81
2022/07/04 03:43:15;;;;;;;1.80;1.40;;;19.30;99.90;;;;;;4988490;28;21471;-80
2022/07/04 03:45:42;;;;;;;1.40;1.30;;;19.30;99.90;;;;;;4985426;28;20620;-80
2022/07/04 03:48:09;;;;;;;2.10;1.77;;;19.30;99.90;;;;;;4984789;28;20994;-80
2022/07/04 03:50:37;;;;;;;2.40;1.73;;;19.30;99.90;;;;;;4985870;28;20652;-80
2022/07/04 03:53:04;;;;;;;1.70;1.40;;;19.30;99.90;;;;;;4985679;28;21187;-80
2022/07/04 03:55:31;;;;;;;2.20;2.00;;;19.20;99.90;;;;;;4986570;28;21145;-80
2022/07/04 03:57:57;;;;;;;2.57;1.47;;;19.20;99.90;;;;;;4986547;28;21271;-80
2022/07/04 04:00:24;;;;;;;2.70;1.53;;;19.20;99.90;;;;;;4987742;28;20660;-80
2022/07/04 04:02:51;;;;;;;3.40;2.07;;;19.20;99.90;;;;;;4988997;28;20664;-81
2022/07/04 04:05:30;;;;;;;3.73;1.63;;;19.20;99.90;;;;;;4987406;28;21088;-80
2022/07/04 04:08:00;;;;;;;5.33;2.03;;;19.20;99.90;;;;;;4986285;28;20627;-80
2022/07/04 04:10:28;;;;;;;1.90;1.47;;;19.10;99.90;;;;;;4987457;28;21021;-80
2022/07/04 04:12:55;;;;;;;3.40;1.53;;;19.20;99.90;;;;;;4988033;28;20640;-80
2022/07/04 04:15:22;;;;;;;2.97;1.80;;;19.20;99.90;;;;;;4986621;28;21080;-80
2022/07/04 04:17:49;;;;;;;4.43;2.00;;;19.20;99.90;;;;;;4986078;28;20668;-80
2022/07/04 04:20:16;;;;;;;3.00;1.67;;;19.20;99.90;;;;;;4987799;28;20648;-80
2022/07/04 04:22:43;;;;;;;8.07;1.80;;;19.20;99.90;;;;;;4987822;28;21534;-80
2022/07/04 04:25:11;;;;;;;2.10;1.93;;;19.20;99.90;;;;;;4987734;28;20624;-81
2022/07/04 04:27:38;;;;;;;2.83;1.77;;;19.10;99.90;;;;;;4988460;28;20648;-81
2022/07/04 04:30:06;;;;;;;2.20;1.60;;;19.10;99.90;;;;;;4988082;28;20727;-80
2022/07/04 04:32:33;;;;;;;2.83;1.87;;;19.10;99.90;;;;;;4988347;28;20732;-81
2022/07/04 04:35:00;;;;;;;2.50;1.80;;;19.10;99.90;;;;;;4987243;28;20643;-80
2022/07/04 04:37:26;;;;;;;3.13;2.20;;;19.10;99.90;;;;;;4987259;28;20648;-80
2022/07/04 04:39:53;;;;;;;2.40;1.80;;;19.10;99.90;;;;;;4985787;28;20652;-81
2022/07/04 04:42:22;;;;;;;3.60;2.20;;;19.10;99.90;;;;;;4988594;28;20672;-80
2022/07/04 04:44:48;;;;;;;2.47;1.53;;;19.10;99.90;;;;;;4987723;28;20636;-80
2022/07/04 04:47:16;;;;;;;9.17;1.63;;;19.10;99.90;;;;;;4982672;28;21238;-80
2022/07/04 04:49:43;;;;;;;3.27;2.00;;;19.10;99.90;;;;;;4980820;28;21029;-81
2022/07/04 04:52:11;;;;;;;3.50;2.10;;;19.10;99.90;;;;;;4984464;28;20617;-80
2022/07/04 04:54:37;;;;;;;2.13;1.93;;;19.10;99.90;;;;;;4983645;28;20727;-80
2022/07/04 04:57:05;;;;;;;2.90;1.70;;;19.20;99.90;;;;;;4986850;28;20608;-80
2022/07/04 04:59:34;;;;;;;2.60;1.73;;;19.20;99.90;;;;;;4986173;28;21387;-80
2022/07/04 05:02:01;;;;;;;3.47;2.20;;;19.30;99.90;;;;;;4986110;28;21380;-80
2022/07/04 05:04:28;;;;;;;3.17;2.00;;;19.30;99.90;;;;;;4985566;28;20641;-80
2022/07/04 05:06:57;;;;;;;3.93;2.10;;;19.30;99.90;;;;;;4986536;28;20998;-80
2022/07/04 05:09:24;;;;;;;2.23;1.70;;;19.40;99.90;;;;;;4985343;28;20708;-80
2022/07/04 05:11:52;;;;;;;2.93;2.20;;;19.40;99.90;;;;;;4983203;28;20687;-80
2022/07/04 05:14:19;;;;;;;2.03;1.70;;;19.50;99.90;;;;;;4986224;28;20633;-80
2022/07/04 05:16:48;;;;;;;2.83;2.00;;;19.50;99.90;;;;;;4987837;28;20636;-80
2022/07/04 05:19:16;;;;;;;5.03;2.03;;;19.50;99.90;;;;;;4987220;28;20724;-80
2022/07/04 05:21:42;;;;;;;4.90;2.03;;;19.50;99.90;;;;;;4979089;28;20703;-80
2022/07/04 05:24:11;;;;;;;3.67;2.40;;;19.50;99.90;;;;;;4986403;28;20661;-80
2022/07/04 05:26:38;;;;;;;6.70;2.43;;;19.50;99.90;;;;;;4987177;28;20643;-80
2022/07/04 05:29:05;;;;;;;5.00;2.90;;;19.50;99.90;;;;;;4988385;28;20714;-80
2022/07/04 05:31:31;;;;;;;3.40;2.73;;;19.50;99.90;;;;;;4992560;28;20657;-80
2022/07/04 05:34:00;;;;;;;1.97;1.77;;;19.50;99.90;;;;;;4986270;28;20633;-80
2022/07/04 05:36:27;;;;;;;2.30;1.90;;;19.50;99.90;;;;;;4987096;28;20644;-80
2022/07/04 05:38:53;;;;;;;3.77;1.80;;;19.50;99.90;;;;;;4986074;28;21632;-81
2022/07/04 05:41:20;;;;;;;3.50;2.30;;;19.60;99.90;;;;;;4986239;28;20705;-80
2022/07/04 05:43:47;;;;;;;2.43;1.80;;;19.50;99.90;;;;;;4985020;28;20645;-81
2022/07/04 05:46:14;;;;;;;3.27;2.10;;;19.60;99.90;;;;;;4983502;28;20640;-81
2022/07/04 05:48:40;;;;;;;1.60;1.50;;;19.70;99.90;;;;;;4984835;28;20643;-80
2022/07/04 05:51:09;;;;;;;1.93;1.47;;;19.80;99.90;;;;;;4985401;28;20664;-81
2022/07/04 05:53:36;;;;;;;4.60;2.10;;;19.90;99.90;;;;;;4985088;28;20715;-81
2022/07/04 05:56:03;;;;;;;6.80;2.10;;;20.00;99.90;;;;;;4984471;28;21150;-81
2022/07/04 05:58:29;;;;;;;2.73;1.77;;;20.10;99.90;;;;;;4985432;28;20628;-81
2022/07/04 06:00:56;;;;;;;3.10;2.10;;;20.20;99.90;;;;;;4985496;28;21222;-81
2022/07/04 06:03:23;;;;;;;4.50;2.03;;;20.30;99.90;;;;;;4985017;28;20687;-81
2022/07/04 06:05:50;;;;;;;5.80;1.87;;;20.40;99.90;;;;;;4985275;28;20640;-81
2022/07/04 06:08:18;;;;;;;2.63;2.20;;;20.60;99.90;;;;;;4986300;28;21268;-81
2022/07/04 06:10:45;;;;;;;2.67;2.43;;;20.60;99.90;;;;;;4986035;28;20667;-81
2022/07/04 06:13:12;;;;;;;5.00;1.73;;;20.60;99.90;;;;;;4984390;28;20630;-81
2022/07/04 06:15:39;;;;;;;2.27;2.00;;;20.70;99.90;;;;;;4982564;28;20691;-81
2022/07/04 06:18:07;;;;;;;4.93;1.70;;;20.80;99.90;;;;;;4985326;28;20633;-81
2022/07/04 06:20:34;;;;;;;3.53;2.10;;;20.90;99.90;;;;;;4985892;28;21177;-80
2022/07/04 06:23:00;;;;;;;2.47;1.90;;;21.00;99.90;;;;;;4985522;28;20671;-81
2022/07/04 06:25:29;;;;;;;7.47;1.80;;;21.00;99.90;;;;;;4985461;28;20635;-81
2022/07/04 06:27:55;;;;;;;2.93;1.87;;;21.00;99.90;;;;;;4986554;28;20624;-80
2022/07/04 06:30:22;;;;;;;4.50;2.00;;;21.00;99.90;;;;;;4985891;28;20659;-81
2022/07/04 06:32:50;;;;;;;2.33;1.60;;;21.10;99.90;;;;;;4986247;28;20625;-81
2022/07/04 06:38:04;;;;;;;2.77;1.63;;;21.10;99.90;;;;;;4984837;28;20627;-81
2022/07/04 06:40:33;;;;;;;2.27;1.60;;;21.10;99.90;;;;;;4985802;28;20695;-81
2022/07/04 06:43:00;;;;;;;3.00;1.80;;;21.10;99.90;;;;;;4985529;28;20697;-81
2022/07/04 06:45:27;;;;;;;3.70;1.80;;;21.10;99.90;;;;;;4985675;28;20740;-81
2022/07/04 06:47:54;;;;;;;3.13;1.87;;;21.10;99.90;;;;;;4985769;28;20633;-81
2022/07/04 06:50:21;;;;;;;6.97;2.23;;;21.20;99.90;;;;;;4985551;28;20676;-81
2022/07/04 06:52:48;;;;;;;3.60;2.00;;;21.20;99.90;;;;;;4986206;28;20644;-81
2022/07/04 06:55:15;;;;;;;6.10;2.70;;;21.30;99.90;;;;;;4984826;28;20659;-81
2022/07/04 06:57:43;;;;;;;3.67;1.80;;;21.30;99.90;;;;;;4979181;28;20636;-80
2022/07/04 07:00:11;;;;;;;4.07;1.63;;;21.40;99.90;;;;;;4984921;28;20648;-81
2022/07/04 07:02:39;;;;;;;2.53;2.33;;;21.40;99.90;;;;;;4985514;28;20669;-80
2022/07/04 07:05:06;;;;;;;3.13;1.97;;;21.50;99.90;;;;;;4984606;28;20628;-81
2022/07/04 07:07:38;;;;;;;2.40;2.10;;;21.50;99.90;;;;;;4983816;28;21219;-80
2022/07/04 07:10:06;;;;;;;4.00;1.80;;;21.60;99.90;;;;;;4983833;28;20963;-81
2022/07/04 07:12:33;;;;;;;1.87;1.77;;;21.60;99.90;;;;;;4986017;28;20668;-81
2022/07/04 07:15:02;;;;;;;5.70;2.10;;;21.70;99.90;;;;;;4983465;28;20633;-81
2022/07/04 07:17:29;;;;;;;2.30;1.67;;;21.80;99.90;;;;;;4985738;28;20727;-81
2022/07/04 07:19:56;;;;;;;2.53;1.83;;;21.90;99.90;;;;;;4984977;28;20745;-81
2022/07/04 07:22:23;;;;;;;2.03;1.80;;;22.00;99.90;;;;;;4985894;28;20684;-81
2022/07/04 07:24:49;;;;;;;5.33;2.07;;;22.10;99.90;;;;;;4984395;28;20633;-81
2022/07/04 07:27:16;;;;;;;7.53;1.90;;;22.10;99.90;;;;;;4989701;28;20628;-81
2022/07/04 07:29:43;;;;;;;3.13;2.00;;;22.20;99.90;;;;;;4989496;28;21580;-81
2022/07/04 07:32:11;;;;;;;6.83;2.47;;;22.30;99.90;;;;;;4989099;28;20620;-81
2022/07/04 07:34:38;;;;;;;3.23;1.80;;;22.40;99.90;;;;;;4986035;28;20751;-80
2022/07/04 07:37:05;;;;;;;4.23;2.00;;;22.60;99.90;;;;;;4985271;28;20635;-81
2022/07/04 07:39:31;;;;;;;4.90;2.00;;;22.70;99.90;;;;;;4987170;28;21213;-81
2022/07/04 07:41:58;;;;;;;5.20;2.00;;;22.80;99.90;;;;;;4988643;28;21199;-81
2022/07/04 07:44:25;;;;;;;3.60;1.80;;;22.80;99.90;;;;;;4987875;28;20629;-81
2022/07/04 07:46:52;;;;;;;2.30;1.90;;;22.80;99.90;;;;;;4987890;28;21453;-81
2022/07/04 07:49:20;;;;;;;3.63;1.70;;;22.90;99.90;;;;;;4988837;28;20641;-81
2022/07/04 07:51:47;;;;;;;3.63;1.90;;;23.00;99.90;;;;;;4989118;28;20648;-81
2022/07/04 07:54:16;;;;;;;2.80;1.93;;;23.10;99.90;;;;;;4986096;28;21276;-81
2022/07/04 07:56:43;;;;;;;1.63;1.43;;;23.20;99.90;;;;;;4988069;28;21239;-81
2022/07/04 07:59:10;;;;;;;1.93;1.73;;;23.20;99.90;;;;;;4988474;28;20639;-81
2022/07/04 08:01:36;;;;;;;5.23;1.80;;;23.20;99.90;;;;;;4989159;28;21238;-81
2022/07/04 08:06:49;;;;;;;3.23;2.20;;;23.20;99.90;;;;;;4988511;28;20731;-81
2022/07/04 08:09:16;;;;;;;3.30;1.80;;;23.10;99.90;;;;;;4988450;28;20628;-81
2022/07/04 08:11:43;;;;;;;2.90;1.90;;;23.20;99.90;;;;;;4985930;28;20639;-82
2022/07/04 08:14:10;;;;;;;3.60;2.00;;;23.30;99.90;;;;;;4986726;28;20637;-81
2022/07/04 08:16:37;;;;;;;8.53;2.47;;;23.40;99.90;;;;;;4989210;28;20636;-81
2022/07/04 08:19:04;;;;;;;4.20;1.90;;;23.40;99.90;;;;;;4985356;28;20640;-81
2022/07/04 08:21:31;;;;;;;6.13;2.37;;;23.40;99.90;;;;;;4984649;28;20659;-81
2022/07/04 08:23:59;;;;;;;4.30;2.27;;;23.40;99.90;;;;;;4988095;28;20947;-81
2022/07/04 08:26:26;;;;;;;2.63;2.07;;;23.30;99.90;;;;;;4986800;28;20771;-80
2022/07/04 08:28:55;;;;;;;2.80;2.50;;;23.30;99.90;;;;;;4988325;28;20748;-80
2022/07/04 08:31:22;;;;;;;4.00;2.40;;;23.30;99.90;;;;;;4987591;28;21536;-81
2022/07/04 08:33:48;;;;;;;4.43;2.10;;;23.40;99.90;;;;;;4988153;28;20629;-81
2022/07/04 08:36:15;;;;;;;4.50;2.27;;;23.40;99.90;;;;;;4987128;28;21164;-81
2022/07/04 08:38:42;;;;;;;9.13;1.90;;;23.40;99.90;;;;;;4987099;28;20641;-81
2022/07/04 08:41:10;;;;;;;1.83;1.73;;;23.40;99.90;;;;;;4986993;28;21238;-81
2022/07/04 08:43:37;;;;;;;3.37;2.10;;;23.50;99.90;;;;;;4988333;28;20675;-81
2022/07/04 08:46:06;;;;;;;2.80;2.60;;;23.70;99.90;;;;;;4987260;28;21164;-80
2022/07/04 08:48:33;;;;;;;2.13;2.03;;;23.60;99.90;;;;;;4988112;28;20633;-81
2022/07/04 08:51:10;;;;;;;2.70;1.90;;;23.60;99.60;;;;;;4987548;28;20652;-80
2022/07/04 08:53:40;;;;;;;3.30;2.03;;;23.60;99.80;;;;;;4984488;28;20635;-81
2022/07/04 08:58:57;;;;;;;4.13;2.10;;;23.50;99.30;;;;;;4987710;28;20635;-81
2022/07/04 09:01:24;;;;;;;2.90;2.33;;;23.50;99.10;;;;;;4987366;28;20652;-81
2022/07/04 09:03:52;;;;;;;3.80;2.10;;;23.60;98.70;;;;;;4985378;28;21031;-81
2022/07/04 09:06:20;;;;;;;3.80;2.20;;;23.70;98.50;;;;;;4986229;28;21233;-81
2022/07/04 09:08:47;;;;;;;8.70;3.10;;;23.80;98.50;;;;;;4986971;28;20617;-81
2022/07/04 09:11:15;;;;;;;2.70;2.10;;;23.90;98.60;;;;;;4986774;28;21306;-81
2022/07/04 09:13:41;;;;;;;4.43;1.80;;;24.00;98.60;;;;;;4985869;28;20647;-81
2022/07/04 09:16:08;;;;;;;4.00;2.07;;;24.10;98.30;;;;;;4986730;28;21085;-81
2022/07/04 09:18:37;;;;;;;3.40;2.43;;;24.20;97.90;;;;;;4987331;28;20659;-81
2022/07/04 09:21:05;;;;;;;3.03;1.60;;;24.30;98.20;;;;;;4985795;28;20652;-81
2022/07/04 09:23:34;;;;;;;4.63;2.37;;;24.50;98.20;;;;;;4987226;28;20660;-81
2022/07/04 09:26:19;;;;;;;3.20;2.07;;;24.70;98.20;;;;;;4985859;28;20651;-81
2022/07/04 09:28:52;;;;;;;3.20;2.07;;;24.70;97.00;;;;;;4986946;28;20636;-81
2022/07/04 09:31:21;;;;;;;2.43;2.10;;;24.80;97.30;;;;;;4986486;28;20660;-79
2022/07/04 09:33:53;;;;;;;3.87;2.10;;;24.90;97.00;;;;;;4986075;28;21521;-79
2022/07/04 09:36:21;;;;;;;4.97;2.40;;;25.00;96.30;;;;;;4982392;28;20617;-79
2022/07/04 09:39:12;;;;;;;2.70;2.00;;;25.00;95.50;;;;;;4986182;28;21230;-79
2022/07/04 09:41:56;;;;;;;3.23;2.23;;;24.90;95.40;;;;;;4984432;28;20624;-82
2022/07/04 09:44:24;;;;;;;3.80;2.30;;;24.90;95.70;;;;;;4981117;28;20669;-81
2022/07/04 09:46:52;;;;;;;2.40;1.80;;;24.80;95.40;;;;;;4985787;28;20636;-81
2022/07/04 09:49:19;;;;;;;5.70;2.50;;;24.90;95.70;;;;;;4986040;28;20640;-81
2022/07/04 09:51:48;;;;;;;2.37;2.20;;;24.80;95.40;;;;;;4986852;28;21743;-81
2022/07/04 09:54:20;;;;;;;2.50;1.73;;;24.80;95.40;;;;;;4985205;28;21050;-81
2022/07/04 09:56:49;;;;;;;5.17;2.30;;;24.90;95.50;;;;;;4986417;28;20727;-81
2022/07/04 09:59:17;;;;;;;2.20;1.90;;;24.90;95.40;;;;;;4984945;28;20631;-81
2022/07/04 10:01:44;;;;;;;4.40;2.10;;;24.80;95.20;;;;;;4986658;28;21242;-81
2022/07/04 10:04:12;;;;;;;9.90;2.10;;;24.80;95.20;;;;;;4986351;28;20668;-81
2022/07/04 10:06:41;;;;;;;3.10;2.40;;;24.80;95.50;;;;;;4986131;28;20648;-81
2022/07/04 10:09:14;;;;;;;3.83;2.30;;;24.80;95.20;;;;;;4986425;28;20611;-81
2022/07/04 10:11:42;;;;;;;3.57;1.83;;;24.80;94.90;;;;;;4986224;28;21171;-81
2022/07/04 10:14:12;;;;;;;6.47;2.23;;;24.80;94.80;;;;;;4985646;28;20647;-81
2022/07/04 10:16:42;;;;;;;1.93;1.60;;;25.00;94.80;;;;;;4986539;28;20628;-81
2022/07/04 10:19:12;;;;;;;3.10;1.90;;;25.00;94.70;;;;;;4986520;28;20647;-81
2022/07/04 10:21:39;;;;;;;2.53;1.50;;;25.10;92.80;;;;;;4984617;28;20678;-81
2022/07/04 10:24:07;;;;;;;2.53;1.70;;;24.90;93.00;;;;;;4981906;28;21146;-81
2022/07/04 10:26:34;;;;;;;1.80;1.70;;;25.00;93.10;;;;;;4985601;28;20997;-81
2022/07/04 10:29:01;;;;;;;2.23;1.63;;;25.10;93.00;;;;;;4985803;28;20636;-81
2022/07/04 10:31:31;;;;;;;1.93;1.83;;;25.00;92.50;;;;;;4986879;28;20656;-81
2022/07/04 10:34:00;;;;;;;1.63;1.53;;;25.00;93.40;;;;;;4986819;28;20653;-81
2022/07/04 10:36:29;;;;;;;3.50;1.70;;;25.10;92.80;;;;;;4985631;28;20739;-79
2022/07/04 10:38:58;;;;;;;7.70;2.07;;;25.10;92.70;;;;;;4985973;28;20667;-79
2022/07/04 10:41:26;;;;;;;1.60;1.50;;;25.10;92.60;;;;;;4985805;28;20648;-79
2022/07/04 10:44:06;;;;;;;3.10;1.70;;;25.10;92.90;;;;;;4984843;28;21408;-81
2022/07/04 10:46:45;;;;;;;4.60;2.20;;;25.30;93.20;;;;;;4981915;28;20640;-81
2022/07/04 10:49:27;;;;;;;2.10;1.50;;;25.50;92.60;;;;;;4986042;28;20612;-79
2022/07/04 10:51:57;;;;;;;2.80;1.40;;;25.50;92.20;;;;;;4984423;28;20624;-81
2022/07/04 10:54:31;;;;;;;4.00;2.07;;;25.70;92.20;;;;;;4985624;28;20632;-82
2022/07/04 10:57:11;;;;;;;2.53;2.10;;;25.90;93.20;;;;;;4984494;28;20671;-81
2022/07/04 10:59:39;;;;;;;2.80;1.80;;;26.40;93.60;;;;;;4981577;28;20675;-81
2022/07/04 11:02:26;;;;;;;3.00;2.10;;;26.70;93.10;;;;;;4989280;28;20636;-79
2022/07/04 11:05:00;;;;;;;3.20;2.00;;;27.00;92.70;;;;;;4988635;28;20664;-79
2022/07/04 11:08:02;;;;;;;4.30;2.00;;;27.30;92.00;;;;;;4988827;28;20635;-79
2022/07/04 11:10:33;;;;;;;2.13;1.83;;;27.60;91.30;;;;;;4978892;28;21034;-79
2022/07/04 11:13:17;;;;;;;2.33;2.00;;;27.80;90.70;;;;;;4988406;28;20629;-81
2022/07/04 11:16:07;;;;;;;2.37;1.90;;;28.10;90.30;;;;;;4988019;28;20641;-82
2022/07/04 11:18:42;;;;;;;6.37;2.00;;;28.40;89.80;;;;;;4989258;28;20625;-79
2022/07/04 11:21:24;;;;;;;2.20;1.90;;;28.60;88.10;;;;;;4987267;28;20651;-79
2022/07/04 11:23:55;;;;;;;7.03;2.07;;;28.80;87.50;;;;;;4989805;28;20763;-79
2022/07/04 11:26:23;;;;;;;2.87;1.97;;;29.10;87.30;;;;;;4987894;28;20633;-79
2022/07/04 11:28:51;;;;;;;1.97;1.80;;;29.30;83.80;;;;;;4989821;28;20967;-80
2022/07/04 11:31:18;;;;;;;3.00;1.60;;;29.40;82.70;;;;;;4988549;28;20663;-79
2022/07/04 11:33:46;;;;;;;2.20;1.70;;;29.60;83.80;;;;;;4989592;28;20640;-80
2022/07/04 11:36:16;;;;;;;4.20;2.00;;;29.80;79.70;;;;;;4988867;28;21000;-79
2022/07/04 11:38:54;;;;;;;5.40;1.93;;;30.10;81.70;;;;;;4988710;28;21271;-79
2022/07/04 11:47:03;;;;;;;1.60;1.50;;;30.40;77.90;;;;;;4987971;28;20712;-80
2022/07/04 11:49:29;;;;;;;7.70;3.20;;;30.80;77.20;;;;;;4984360;28;20743;-80
2022/07/04 11:51:56;;;;;;;2.03;1.50;;;31.10;75.60;;;;;;4989238;28;21003;-80
2022/07/04 11:54:24;;;;;;;2.37;1.60;;;31.10;76.10;;;;;;4988919;28;21208;-80
2022/07/04 11:56:52;;;;;;;4.40;1.77;;;31.50;75.10;;;;;;4986491;28;20642;-80
2022/07/04 11:59:19;;;;;;;1.73;1.50;;;31.70;73.00;;;;;;4988933;28;20786;-80
2022/07/04 12:01:46;;;;;;;5.00;2.07;;;31.90;73.20;;;;;;4988982;28;20621;-80
2022/07/04 12:04:17;;;;;;;3.33;2.20;;;31.90;71.10;;;;;;4986774;28;20659;-80
2022/07/04 12:06:46;;;;;;;2.77;2.30;;;32.10;72.60;;;;;;4986422;28;21285;-80
2022/07/04 12:09:13;;;;;;;3.50;2.10;;;32.30;70.90;;;;;;4988607;28;20720;-80
2022/07/04 12:11:55;;;;;;;4.20;2.00;;;32.60;70.40;;;;;;4987810;28;20628;-80
2022/07/04 12:14:22;;;;;;;2.77;1.63;;;32.70;70.00;;;;;;4986491;28;20627;-80
2022/07/04 12:16:49;;;;;;;3.80;1.80;;;32.90;69.70;;;;;;4988041;28;21159;-80
2022/07/04 12:19:16;;;;;;;3.50;1.97;;;33.20;69.20;;;;;;4987929;28;20628;-80
2022/07/04 12:21:44;;;;;;;6.10;1.60;;;33.00;65.90;;;;;;4988532;28;20643;-80
2022/07/04 12:24:10;;;;;;;1.90;1.67;;;33.00;64.20;;;;;;4988323;28;20690;-80
2022/07/04 12:26:46;;;;;;;2.30;2.10;;;32.70;64.30;;;;;;4987329;28;20632;-80
2022/07/04 12:29:21;;;;;;;2.13;1.90;;;32.40;64.70;;;;;;4986530;28;20635;-80
2022/07/04 12:31:53;;;;;;;3.50;1.93;;;32.30;64.80;;;;;;4986609;28;20627;-80
2022/07/04 12:34:20;;;;;;;5.10;2.10;;;32.30;64.80;;;;;;4987455;28;20624;-80
2022/07/04 12:36:51;;;;;;;3.77;1.73;;;32.40;64.30;;;;;;4987547;28;20670;-80
2022/07/04 12:39:31;;;;;;;6.27;1.90;;;32.40;64.50;;;;;;4986927;28;20640;-80
2022/07/04 12:42:06;;;;;;;8.43;2.07;;;32.40;64.00;;;;;;4986248;28;20635;-80
2022/07/04 12:44:34;;;;;;;4.40;2.30;;;32.20;64.90;;;;;;4984800;28;20658;-80
2022/07/04 12:47:01;;;;;;;2.30;2.10;;;32.40;65.50;;;;;;4987589;28;20647;-80
2022/07/04 12:49:28;;;;;;;3.03;1.80;;;32.60;62.90;;;;;;4987471;28;20636;-80
2022/07/04 12:52:08;;;;;;;6.93;1.93;;;32.40;62.70;;;;;;4988322;28;20632;-80
2022/07/04 12:54:36;;;;;;;2.30;1.63;;;32.90;63.40;;;;;;4984175;28;20616;-80
2022/07/04 12:57:07;;;;;;;1.97;1.77;;;33.30;61.40;;;;;;4986804;28;20628;-80
2022/07/04 12:59:35;;;;;;;5.03;1.90;;;33.40;59.60;;;;;;4988073;28;20655;-80
2022/07/04 13:02:03;;;;;;;2.10;1.90;;;33.50;59.40;;;;;;4987994;28;20635;-80
2022/07/04 13:04:32;;;;;;;4.83;1.70;;;33.50;61.40;;;;;;4987540;28;20674;-80
2022/07/04 13:07:00;;;;;;;14.97;2.20;;;33.90;62.20;;;;;;4987660;28;21005;-80
2022/07/04 13:09:27;;;;;;;3.53;1.90;;;34.10;60.70;;;;;;4984407;28;20647;-80
2022/07/04 13:14:40;;;;;;;2.20;1.90;;;34.70;58.30;;;;;;4983883;28;20656;-80
2022/07/04 13:17:07;;;;;;;3.53;1.90;;;35.00;57.40;;;;;;4984844;28;20624;-80